sensor_id;sensor_type;location;lat;lon;timestamp;pressure;altitude;pressure_sealevel;temperature;humidity
59029;BME280;45919;51.420;5.454;2022-12-22T00:00:23;100289.56;;;10.61;94.69
59029;BME280;45919;51.420;5.454;2022-12-22T00:01:48;100292.16;;;10.59;95.00
59029;BME280;45919;51.420;5.454;2022-12-22T00:03:13;100277.34;;;10.57;94.87
59029;BME280;45919;51.420;5.454;2022-12-22T00:04:33;100295.63;;;10.61;94.88
59029;BME280;45919;51.420;5.454;2022-12-22T00:05:53;100286.06;;;10.59;94.93
59029;BME280;45919;51.420;5.454;2022-12-22T00:07:13;100290.44;;;10.63;95.03
59029;BME280;45919;51.420;5.454;2022-12-22T00:08:34;100280.84;;;10.62;94.89
59029;BME280;45919;51.420;5.454;2022-12-22T00:09:54;100287.84;;;10.63;94.96
59029;BME280;45919;51.420;5.454;2022-12-22T00:11:14;100281.75;;;10.66;94.50
59029;BME280;45919;51.420;5.454;2022-12-22T00:12:34;100259.03;;;10.52;94.65
59029;BME280;45919;51.420;5.454;2022-12-22T00:13:55;100276.50;;;10.64;94.70
59029;BME280;45919;51.420;5.454;2022-12-22T00:15:16;100283.50;;;10.70;94.88
59029;BME280;45919;51.420;5.454;2022-12-22T00:16:37;100235.44;;;10.44;94.88
59029;BME280;45919;51.420;5.454;2022-12-22T00:17:58;100273.94;;;10.72;94.62
59029;BME280;45919;51.420;5.454;2022-12-22T00:19:19;100274.78;;;10.71;94.66
59029;BME280;45919;51.420;5.454;2022-12-22T00:20:39;100271.34;;;10.73;94.47
59029;BME280;45919;51.420;5.454;2022-12-22T00:22:19;100277.50;;;10.85;94.72
59029;BME280;45919;51.420;5.454;2022-12-22T00:23:39;100255.63;;;10.67;94.50
59029;BME280;45919;51.420;5.454;2022-12-22T00:24:59;100260.91;;;10.75;94.33
59029;BME280;45919;51.420;5.454;2022-12-22T00:26:20;100256.56;;;10.74;94.62
59029;BME280;45919;51.420;5.454;2022-12-22T00:27:40;100261.78;;;10.74;94.83
59029;BME280;45919;51.420;5.454;2022-12-22T00:29:01;100262.66;;;10.76;94.82
59029;BME280;45919;51.420;5.454;2022-12-22T00:30:22;100260.91;;;10.76;94.59
59029;BME280;45919;51.420;5.454;2022-12-22T00:31:42;100258.28;;;10.75;94.59
59029;BME280;45919;51.420;5.454;2022-12-22T00:33:04;100252.22;;;10.79;94.56
59029;BME280;45919;51.420;5.454;2022-12-22T00:34:26;100260.06;;;10.81;94.73
59029;BME280;45919;51.420;5.454;2022-12-22T00:35:46;100253.06;;;10.78;94.68
59029;BME280;45919;51.420;5.454;2022-12-22T00:37:13;100254.00;;;10.85;94.56
59029;BME280;45919;51.420;5.454;2022-12-22T00:38:34;100253.09;;;10.80;94.25
59029;BME280;45919;51.420;5.454;2022-12-22T00:39:54;100250.50;;;10.80;94.45
59029;BME280;45919;51.420;5.454;2022-12-22T00:41:14;100226.91;;;10.69;94.31
59029;BME280;45919;51.420;5.454;2022-12-22T00:42:34;100242.66;;;10.80;94.39
59029;BME280;45919;51.420;5.454;2022-12-22T00:43:55;100192.88;;;10.51;94.29
59029;BME280;45919;51.420;5.454;2022-12-22T00:45:15;100229.56;;;10.76;94.44
59029;BME280;45919;51.420;5.454;2022-12-22T00:46:38;100225.22;;;10.80;94.60
59029;BME280;45919;51.420;5.454;2022-12-22T00:47:59;100231.31;;;10.79;94.45
59029;BME280;45919;51.420;5.454;2022-12-22T00:49:22;100223.47;;;10.79;94.88
59029;BME280;45919;51.420;5.454;2022-12-22T00:50:44;100236.53;;;10.79;94.51
59029;BME280;45919;51.420;5.454;2022-12-22T00:52:04;100188.53;;;10.57;94.57
59029;BME280;45919;51.420;5.454;2022-12-22T00:53:24;100230.53;;;11.00;94.89
59029;BME280;45919;51.420;5.454;2022-12-22T00:54:44;100225.22;;;10.82;94.36
59029;BME280;45919;51.420;5.454;2022-12-22T00:56:05;100224.38;;;10.81;94.73
59029;BME280;45919;51.420;5.454;2022-12-22T00:57:25;100217.38;;;10.80;94.45
59029;BME280;45919;51.420;5.454;2022-12-22T00:58:47;100217.38;;;10.80;94.86
59029;BME280;45919;51.420;5.454;2022-12-22T01:00:15;100214.81;;;10.86;94.86
59029;BME280;45919;51.420;5.454;2022-12-22T01:01:35;100199.97;;;10.76;94.89
59029;BME280;45919;51.420;5.454;2022-12-22T01:02:55;100210.41;;;10.82;94.95
59029;BME280;45919;51.420;5.454;2022-12-22T01:04:16;100197.34;;;10.76;94.55
59029;BME280;45919;51.420;5.454;2022-12-22T01:05:36;100203.47;;;10.80;94.57
59029;BME280;45919;51.420;5.454;2022-12-22T01:06:56;100205.19;;;10.81;94.78
59029;BME280;45919;51.420;5.454;2022-12-22T01:08:17;100181.63;;;10.68;94.65
59029;BME280;45919;51.420;5.454;2022-12-22T01:09:37;100204.34;;;10.83;94.86
59029;BME280;45919;51.420;5.454;2022-12-22T01:10:58;100198.25;;;10.81;94.78
59029;BME280;45919;51.420;5.454;2022-12-22T01:12:21;100187.78;;;10.84;94.84
59029;BME280;45919;51.420;5.454;2022-12-22T01:13:42;100193.91;;;10.83;94.80
59029;BME280;45919;51.420;5.454;2022-12-22T01:15:04;100183.44;;;10.85;94.81
59029;BME280;45919;51.420;5.454;2022-12-22T01:16:28;100170.34;;;10.79;94.76
59029;BME280;45919;51.420;5.454;2022-12-22T01:17:48;100174.72;;;10.86;94.58
59029;BME280;45919;51.420;5.454;2022-12-22T01:19:08;100175.59;;;10.85;94.57
59029;BME280;45919;51.420;5.454;2022-12-22T01:20:30;100173.00;;;10.88;94.90
59029;BME280;45919;51.420;5.454;2022-12-22T01:21:50;100163.41;;;10.87;94.38
59029;BME280;45919;51.420;5.454;2022-12-22T01:23:10;100166.88;;;10.87;94.52
59029;BME280;45919;51.420;5.454;2022-12-22T01:24:30;100172.09;;;10.87;94.50
59029;BME280;45919;51.420;5.454;2022-12-22T01:25:50;100173.88;;;10.88;94.62
59029;BME280;45919;51.420;5.454;2022-12-22T01:27:10;100128.50;;;10.69;94.54
59029;BME280;45919;51.420;5.454;2022-12-22T01:28:30;100165.16;;;10.90;94.44
59029;BME280;45919;51.420;5.454;2022-12-22T01:29:50;100161.69;;;10.92;94.42
59029;BME280;45919;51.420;5.454;2022-12-22T01:31:30;100160.84;;;11.07;94.58
59029;BME280;45919;51.420;5.454;2022-12-22T01:32:51;100150.34;;;10.92;94.09
59029;BME280;45919;51.420;5.454;2022-12-22T01:34:11;100154.69;;;10.93;94.07
59029;BME280;45919;51.420;5.454;2022-12-22T01:35:33;100141.63;;;10.88;94.43
59029;BME280;45919;51.420;5.454;2022-12-22T01:36:53;100154.69;;;10.93;94.24
59029;BME280;45919;51.420;5.454;2022-12-22T01:38:13;100146.88;;;10.88;94.15
59029;BME280;45919;51.420;5.454;2022-12-22T01:39:33;100155.59;;;10.95;94.48
59029;BME280;45919;51.420;5.454;2022-12-22T01:40:55;100154.72;;;10.97;94.43
59029;BME280;45919;51.420;5.454;2022-12-22T01:42:17;100156.47;;;10.98;94.19
59029;BME280;45919;51.420;5.454;2022-12-22T01:43:37;100146.00;;;10.95;94.23
59029;BME280;45919;51.420;5.454;2022-12-22T01:45:17;100115.50;;;10.90;94.39
59029;BME280;45919;51.420;5.454;2022-12-22T01:46:42;100146.88;;;11.00;94.20
59029;BME280;45919;51.420;5.454;2022-12-22T01:48:03;100146.91;;;10.99;94.09
59029;BME280;45919;51.420;5.454;2022-12-22T01:49:35;100146.00;;;11.00;94.08
59029;BME280;45919;51.420;5.454;2022-12-22T01:50:58;100134.69;;;10.92;93.92
59029;BME280;45919;51.420;5.454;2022-12-22T01:52:22;100146.00;;;11.00;94.26
59029;BME280;45919;51.420;5.454;2022-12-22T01:53:43;100136.44;;;10.97;94.15
59029;BME280;45919;51.420;5.454;2022-12-22T01:55:08;100140.78;;;11.00;94.01
59029;BME280;45919;51.420;5.454;2022-12-22T01:56:31;100136.44;;;10.97;94.15
59029;BME280;45919;51.420;5.454;2022-12-22T01:57:51;100119.84;;;10.87;94.03
59029;BME280;45919;51.420;5.454;2022-12-22T01:59:11;100127.72;;;10.97;94.25
59029;BME280;45919;51.420;5.454;2022-12-22T02:00:31;100126.84;;;10.96;94.16
59029;BME280;45919;51.420;5.454;2022-12-22T02:01:52;100120.75;;;10.96;94.26
59029;BME280;45919;51.420;5.454;2022-12-22T02:03:20;100120.75;;;11.04;94.49
59029;BME280;45919;51.420;5.454;2022-12-22T02:04:44;100119.88;;;11.00;94.35
59029;BME280;45919;51.420;5.454;2022-12-22T02:06:35;100112.06;;;11.14;94.67
59029;BME280;45919;51.420;5.454;2022-12-22T02:08:08;100121.63;;;11.03;94.19
59029;BME280;45919;51.420;5.454;2022-12-22T02:11:38;100104.19;;;11.00;93.88
59029;BME280;45919;51.420;5.454;2022-12-22T02:13:33;100103.34;;;11.07;94.41
59029;BME280;45919;51.420;5.454;2022-12-22T02:16:50;100100.72;;;10.98;94.23
59029;BME280;45919;51.420;5.454;2022-12-22T02:18:18;100099.84;;;10.99;94.25
59029;BME280;45919;51.420;5.454;2022-12-22T02:21:17;100100.72;;;10.99;94.42
59029;BME280;45919;51.420;5.454;2022-12-22T02:24:36;100091.16;;;11.12;94.67
59029;BME280;45919;51.420;5.454;2022-12-22T02:27:42;100091.16;;;11.03;94.35
59029;BME280;45919;51.420;5.454;2022-12-22T02:29:05;100096.38;;;11.02;94.46
59029;BME280;45919;51.420;5.454;2022-12-22T02:30:26;100078.06;;;10.92;94.51
59029;BME280;45919;51.420;5.454;2022-12-22T02:31:47;100098.13;;;11.03;94.42
59029;BME280;45919;51.420;5.454;2022-12-22T02:33:07;100090.28;;;11.03;94.48
59029;BME280;45919;51.420;5.454;2022-12-22T02:34:27;100078.09;;;11.02;94.69
59029;BME280;45919;51.420;5.454;2022-12-22T02:36:16;100084.19;;;11.16;94.91
59029;BME280;45919;51.420;5.454;2022-12-22T02:37:48;100076.34;;;11.05;94.75
59029;BME280;45919;51.420;5.454;2022-12-22T02:39:55;100080.69;;;11.17;94.95
59029;BME280;45919;51.420;5.454;2022-12-22T02:41:20;100037.13;;;10.90;94.66
59029;BME280;45919;51.420;5.454;2022-12-22T02:42:56;100072.88;;;11.14;94.93
59029;BME280;45919;51.420;5.454;2022-12-22T02:46:29;100071.13;;;11.10;94.87
59029;BME280;45919;51.420;5.454;2022-12-22T02:48:03;100068.50;;;11.13;94.79
59029;BME280;45919;51.420;5.454;2022-12-22T02:50:32;100068.50;;;11.18;95.09
59029;BME280;45919;51.420;5.454;2022-12-22T02:51:27;100072.84;;;11.06;94.81
59029;BME280;45919;51.420;5.454;2022-12-22T02:52:49;100060.63;;;11.04;94.86
59029;BME280;45919;51.420;5.454;2022-12-22T02:54:10;100067.63;;;11.03;94.94
59029;BME280;45919;51.420;5.454;2022-12-22T02:55:31;100024.94;;;10.79;94.98
59029;BME280;45919;51.420;5.454;2022-12-22T02:56:51;100055.44;;;10.97;94.94
59029;BME280;45919;51.420;5.454;2022-12-22T02:58:12;100063.28;;;11.07;94.88
59029;BME280;45919;51.420;5.454;2022-12-22T02:59:32;100059.78;;;11.06;95.02
59029;BME280;45919;51.420;5.454;2022-12-22T03:00:53;100061.53;;;11.09;95.01
59029;BME280;45919;51.420;5.454;2022-12-22T03:02:13;100064.16;;;11.09;94.85
59029;BME280;45919;51.420;5.454;2022-12-22T03:03:34;100062.38;;;11.09;94.82
59029;BME280;45919;51.420;5.454;2022-12-22T03:04:54;100060.66;;;11.10;94.71
59029;BME280;45919;51.420;5.454;2022-12-22T03:06:14;100055.44;;;11.32;95.05
59029;BME280;45919;51.420;5.454;2022-12-22T03:07:34;100059.81;;;11.12;94.36
59029;BME280;45919;51.420;5.454;2022-12-22T03:08:54;100059.78;;;11.11;94.81
59029;BME280;45919;51.420;5.454;2022-12-22T03:10:14;100051.09;;;11.10;94.72
59029;BME280;45919;51.420;5.454;2022-12-22T03:11:34;100035.41;;;10.98;94.90
59029;BME280;45919;51.420;5.454;2022-12-22T03:12:58;100051.97;;;11.12;94.66
59029;BME280;45919;51.420;5.454;2022-12-22T03:14:18;100048.47;;;11.09;94.69
59029;BME280;45919;51.420;5.454;2022-12-22T03:15:38;100040.63;;;11.09;94.88
59029;BME280;45919;51.420;5.454;2022-12-22T03:16:58;100041.50;;;11.08;94.74
59029;BME280;45919;51.420;5.454;2022-12-22T03:18:19;100044.09;;;11.08;94.69
59029;BME280;45919;51.420;5.454;2022-12-22T03:19:39;100040.63;;;11.09;94.79
59029;BME280;45919;51.420;5.454;2022-12-22T03:20:59;100044.09;;;11.09;95.02
59029;BME280;45919;51.420;5.454;2022-12-22T03:22:19;100043.25;;;11.12;94.88
59029;BME280;45919;51.420;5.454;2022-12-22T03:23:39;100032.78;;;11.12;94.81
59029;BME280;45919;51.420;5.454;2022-12-22T03:24:59;100017.97;;;11.00;94.65
59029;BME280;45919;51.420;5.454;2022-12-22T03:26:20;100027.53;;;11.06;94.79
59029;BME280;45919;51.420;5.454;2022-12-22T03:27:21;100030.19;;;11.09;95.16
59029;BME280;45919;51.420;5.454;2022-12-22T03:28:27;100033.66;;;11.12;95.32
59029;BME280;45919;51.420;5.454;2022-12-22T03:29:29;100024.94;;;11.04;95.26
59029;BME280;45919;51.420;5.454;2022-12-22T03:30:30;100041.47;;;11.11;95.17
59029;BME280;45919;51.420;5.454;2022-12-22T03:31:32;100006.66;;;10.92;95.16
59029;BME280;45919;51.420;5.454;2022-12-22T03:32:33;100033.66;;;11.12;94.98
59029;BME280;45919;51.420;5.454;2022-12-22T03:33:35;100026.66;;;11.15;95.16
59029;BME280;45919;51.420;5.454;2022-12-22T03:34:37;100033.66;;;11.16;94.82
59029;BME280;45919;51.420;5.454;2022-12-22T03:35:38;100023.19;;;11.16;94.86
59029;BME280;45919;51.420;5.454;2022-12-22T03:36:40;100031.03;;;11.16;94.70
59029;BME280;45919;51.420;5.454;2022-12-22T03:37:41;100031.03;;;11.16;95.03
59029;BME280;45919;51.420;5.454;2022-12-22T03:38:43;100028.44;;;11.14;95.11
59029;BME280;45919;51.420;5.454;2022-12-22T03:39:44;100029.28;;;11.15;94.92
59029;BME280;45919;51.420;5.454;2022-12-22T03:40:46;100025.81;;;11.16;94.88
59029;BME280;45919;51.420;5.454;2022-12-22T03:41:48;100015.34;;;11.16;94.81
59029;BME280;45919;51.420;5.454;2022-12-22T03:43:12;100022.34;;;11.21;94.62
59029;BME280;45919;51.420;5.454;2022-12-22T03:44:32;100024.91;;;11.18;94.49
59029;BME280;45919;51.420;5.454;2022-12-22T03:45:54;100019.72;;;11.20;94.68
59029;BME280;45919;51.420;5.454;2022-12-22T03:47:14;100018.84;;;11.19;94.39
59029;BME280;45919;51.420;5.454;2022-12-22T03:48:15;100020.59;;;11.17;94.55
59029;BME280;45919;51.420;5.454;2022-12-22T03:49:17;100014.47;;;11.17;94.67
59029;BME280;45919;51.420;5.454;2022-12-22T03:50:19;100014.47;;;11.17;94.59
59029;BME280;45919;51.420;5.454;2022-12-22T03:51:21;100012.75;;;11.17;94.56
59029;BME280;45919;51.420;5.454;2022-12-22T03:52:23;99997.94;;;11.07;94.57
59029;BME280;45919;51.420;5.454;2022-12-22T03:53:25;100006.66;;;11.09;94.36
59029;BME280;45919;51.420;5.454;2022-12-22T03:54:26;100022.31;;;11.18;93.98
59029;BME280;45919;51.420;5.454;2022-12-22T03:55:28;100027.56;;;11.20;94.61
59029;BME280;45919;51.420;5.454;2022-12-22T03:56:30;100027.56;;;11.20;94.47
59029;BME280;45919;51.420;5.454;2022-12-22T03:57:31;100019.72;;;11.20;94.23
59029;BME280;45919;51.420;5.454;2022-12-22T03:58:33;100014.47;;;11.23;94.12
59029;BME280;45919;51.420;5.454;2022-12-22T03:59:35;100021.44;;;11.26;94.20
59029;BME280;45919;51.420;5.454;2022-12-22T04:00:36;100018.81;;;11.24;94.09
59029;BME280;45919;51.420;5.454;2022-12-22T04:01:41;100017.97;;;11.28;94.20
59029;BME280;45919;51.420;5.454;2022-12-22T04:02:43;100016.22;;;11.27;93.96
59029;BME280;45919;51.420;5.454;2022-12-22T04:03:44;99983.97;;;11.09;94.03
59029;BME280;45919;51.420;5.454;2022-12-22T04:04:46;99997.03;;;11.20;94.07
59029;BME280;45919;51.420;5.454;2022-12-22T04:05:47;100012.72;;;11.28;93.86
59029;BME280;45919;51.420;5.454;2022-12-22T04:06:50;100012.72;;;11.30;93.84
59029;BME280;45919;51.420;5.454;2022-12-22T04:07:52;100013.63;;;11.27;93.51
59029;BME280;45919;51.420;5.454;2022-12-22T04:08:53;100004.00;;;11.28;93.65
59029;BME280;45919;51.420;5.454;2022-12-22T04:09:55;100012.75;;;11.25;93.92
59029;BME280;45919;51.420;5.454;2022-12-22T04:11:16;100004.03;;;11.24;93.92
59029;BME280;45919;51.420;5.454;2022-12-22T04:12:36;100004.88;;;11.27;93.78
59029;BME280;45919;51.420;5.454;2022-12-22T04:13:56;99986.59;;;11.16;93.70
59029;BME280;45919;51.420;5.454;2022-12-22T04:14:58;99997.91;;;11.22;94.12
59029;BME280;45919;51.420;5.454;2022-12-22T04:15:59;100003.16;;;11.22;93.71
59029;BME280;45919;51.420;5.454;2022-12-22T04:17:02;100001.41;;;11.21;93.68
59029;BME280;45919;51.420;5.454;2022-12-22T04:18:04;99994.44;;;11.20;93.72
59029;BME280;45919;51.420;5.454;2022-12-22T04:19:06;99996.19;;;11.20;93.62
59029;BME280;45919;51.420;5.454;2022-12-22T04:20:09;99990.06;;;11.21;93.75
59029;BME280;45919;51.420;5.454;2022-12-22T04:21:10;99989.19;;;11.20;93.65
59029;BME280;45919;51.420;5.454;2022-12-22T04:22:12;99988.31;;;11.18;93.81
59029;BME280;45919;51.420;5.454;2022-12-22T04:23:14;99964.84;;;10.98;94.04
59029;BME280;45919;51.420;5.454;2022-12-22T04:24:15;99986.59;;;11.16;93.76
59029;BME280;45919;51.420;5.454;2022-12-22T04:25:17;99963.97;;;11.00;93.83
59029;BME280;45919;51.420;5.454;2022-12-22T04:26:20;99992.72;;;11.16;93.91
59029;BME280;45919;51.420;5.454;2022-12-22T04:27:22;99970.03;;;11.06;93.91
59029;BME280;45919;51.420;5.454;2022-12-22T04:28:24;99992.69;;;11.15;93.89
59029;BME280;45919;51.420;5.454;2022-12-22T04:29:25;99997.91;;;11.15;94.00
59029;BME280;45919;51.420;5.454;2022-12-22T04:30:27;99991.84;;;11.14;94.13
59029;BME280;45919;51.420;5.454;2022-12-22T04:31:29;99994.44;;;11.14;94.35
59029;BME280;45919;51.420;5.454;2022-12-22T04:32:30;100002.28;;;11.12;94.35
59029;BME280;45919;51.420;5.454;2022-12-22T04:33:32;100008.38;;;11.13;94.19
59029;BME280;45919;51.420;5.454;2022-12-22T04:34:33;100017.97;;;11.12;94.31
59029;BME280;45919;51.420;5.454;2022-12-22T04:35:35;100003.16;;;11.13;94.25
59029;BME280;45919;51.420;5.454;2022-12-22T04:36:36;99999.66;;;11.16;94.47
59029;BME280;45919;51.420;5.454;2022-12-22T04:37:38;99999.66;;;11.17;94.27
59029;BME280;45919;51.420;5.454;2022-12-22T04:38:39;100000.56;;;11.07;94.23
59029;BME280;45919;51.420;5.454;2022-12-22T04:39:41;100009.22;;;11.18;94.16
59029;BME280;45919;51.420;5.454;2022-12-22T04:40:43;100003.16;;;11.13;94.34
59029;BME280;45919;51.420;5.454;2022-12-22T04:41:44;99995.31;;;11.11;94.27
59029;BME280;45919;51.420;5.454;2022-12-22T04:42:46;100005.78;;;11.19;94.11
59029;BME280;45919;51.420;5.454;2022-12-22T04:43:48;100005.78;;;11.19;94.16
59029;BME280;45919;51.420;5.454;2022-12-22T04:44:50;100001.41;;;11.18;94.29
59029;BME280;45919;51.420;5.454;2022-12-22T04:45:55;100002.28;;;11.23;94.15
59029;BME280;45919;51.420;5.454;2022-12-22T04:46:57;100004.03;;;11.20;93.67
59029;BME280;45919;51.420;5.454;2022-12-22T04:47:58;100009.25;;;11.20;93.93
59029;BME280;45919;51.420;5.454;2022-12-22T04:49:00;99975.28;;;11.03;93.65
59029;BME280;45919;51.420;5.454;2022-12-22T04:50:02;100000.53;;;11.21;93.63
59029;BME280;45919;51.420;5.454;2022-12-22T04:51:03;100010.09;;;11.20;93.68
59029;BME280;45919;51.420;5.454;2022-12-22T04:52:05;100009.25;;;11.21;93.67
59029;BME280;45919;51.420;5.454;2022-12-22T04:53:07;99993.56;;;11.14;93.63
59029;BME280;45919;51.420;5.454;2022-12-22T04:54:09;100001.41;;;11.15;93.85
59029;BME280;45919;51.420;5.454;2022-12-22T04:55:11;99997.91;;;11.15;94.03
59029;BME280;45919;51.420;5.454;2022-12-22T04:56:13;100013.59;;;11.21;94.02
59029;BME280;45919;51.420;5.454;2022-12-22T04:57:15;99986.59;;;11.06;93.59
59029;BME280;45919;51.420;5.454;2022-12-22T04:58:16;100017.09;;;11.17;93.37
59029;BME280;45919;51.420;5.454;2022-12-22T04:59:18;100013.63;;;11.19;93.42
59029;BME280;45919;51.420;5.454;2022-12-22T05:00:20;100011.00;;;11.19;93.38
59029;BME280;45919;51.420;5.454;2022-12-22T05:01:22;100012.72;;;11.20;93.17
59029;BME280;45919;51.420;5.454;2022-12-22T05:02:24;100020.56;;;11.20;93.62
59029;BME280;45919;51.420;5.454;2022-12-22T05:03:26;100011.88;;;11.21;93.73
59029;BME280;45919;51.420;5.454;2022-12-22T05:04:27;100023.19;;;11.22;93.50
59029;BME280;45919;51.420;5.454;2022-12-22T05:05:29;100023.19;;;11.22;93.61
59029;BME280;45919;51.420;5.454;2022-12-22T05:06:30;100017.09;;;11.23;93.75
59029;BME280;45919;51.420;5.454;2022-12-22T05:07:32;100016.22;;;11.21;93.90
59029;BME280;45919;51.420;5.454;2022-12-22T05:08:33;100020.56;;;11.20;93.50
59029;BME280;45919;51.420;5.454;2022-12-22T05:09:35;100013.63;;;11.16;93.73
59029;BME280;45919;51.420;5.454;2022-12-22T05:10:37;99996.19;;;11.04;93.50
59029;BME280;45919;51.420;5.454;2022-12-22T05:11:38;100017.97;;;11.19;92.94
59029;BME280;45919;51.420;5.454;2022-12-22T05:12:40;100013.63;;;11.16;92.77
59029;BME280;45919;51.420;5.454;2022-12-22T05:13:57;100009.25;;;11.21;92.77
59029;BME280;45919;51.420;5.454;2022-12-22T05:15:01;100001.41;;;11.20;92.88
59029;BME280;45919;51.420;5.454;2022-12-22T05:16:11;99976.16;;;11.06;93.16
59029;BME280;45919;51.420;5.454;2022-12-22T05:17:13;100015.34;;;11.20;92.75
59029;BME280;45919;51.420;5.454;2022-12-22T05:18:14;100008.38;;;11.18;92.57
59029;BME280;45919;51.420;5.454;2022-12-22T05:19:16;100012.75;;;11.17;92.77
59029;BME280;45919;51.420;5.454;2022-12-22T05:20:18;100012.75;;;11.16;92.66
59029;BME280;45919;51.420;5.454;2022-12-22T05:21:21;100006.63;;;11.17;92.92
59029;BME280;45919;51.420;5.454;2022-12-22T05:22:22;100011.88;;;11.15;92.73
59029;BME280;45919;51.420;5.454;2022-12-22T05:23:26;100014.47;;;11.15;92.89
59029;BME280;45919;51.420;5.454;2022-12-22T05:24:28;100009.25;;;11.14;93.06
59029;BME280;45919;51.420;5.454;2022-12-22T05:25:29;99994.44;;;11.00;93.00
59029;BME280;45919;51.420;5.454;2022-12-22T05:26:34;100004.03;;;11.12;92.76
59029;BME280;45919;51.420;5.454;2022-12-22T05:27:37;100000.53;;;11.08;92.89
59029;BME280;45919;51.420;5.454;2022-12-22T05:28:42;100004.03;;;11.09;92.67
59029;BME280;45919;51.420;5.454;2022-12-22T05:29:44;100002.28;;;11.09;92.91
59029;BME280;45919;51.420;5.454;2022-12-22T05:30:45;100004.03;;;11.09;92.90
59029;BME280;45919;51.420;5.454;2022-12-22T05:31:47;99999.66;;;11.08;92.83
59029;BME280;45919;51.420;5.454;2022-12-22T05:32:49;100004.91;;;11.06;92.96
59029;BME280;45919;51.420;5.454;2022-12-22T05:33:51;99981.38;;;10.89;92.60
59029;BME280;45919;51.420;5.454;2022-12-22T05:34:52;100006.66;;;11.01;92.60
59029;BME280;45919;51.420;5.454;2022-12-22T05:35:54;100007.50;;;11.00;92.58
59029;BME280;45919;51.420;5.454;2022-12-22T05:36:55;100003.16;;;10.97;92.78
59029;BME280;45919;51.420;5.454;2022-12-22T05:37:57;100014.47;;;10.95;92.79
59029;BME280;45919;51.420;5.454;2022-12-22T05:38:59;100006.66;;;10.92;92.82
59029;BME280;45919;51.420;5.454;2022-12-22T05:40:01;99999.69;;;10.81;93.13
59029;BME280;45919;51.420;5.454;2022-12-22T05:41:02;100015.34;;;10.84;93.31
59029;BME280;45919;51.420;5.454;2022-12-22T05:42:05;100020.56;;;10.86;93.36
59029;BME280;45919;51.420;5.454;2022-12-22T05:43:06;100031.03;;;10.84;94.01
59029;BME280;45919;51.420;5.454;2022-12-22T05:44:08;100024.03;;;10.80;94.73
59029;BME280;45919;51.420;5.454;2022-12-22T05:45:12;100038.88;;;10.83;95.05
59029;BME280;45919;51.420;5.454;2022-12-22T05:46:15;100038.00;;;10.81;95.11
59029;BME280;45919;51.420;5.454;2022-12-22T05:47:16;100038.84;;;10.78;95.47
59029;BME280;45919;51.420;5.454;2022-12-22T05:48:18;99999.63;;;10.53;96.08
59029;BME280;45919;51.420;5.454;2022-12-22T05:49:22;100042.34;;;10.74;96.25
59029;BME280;45919;51.420;5.454;2022-12-22T05:50:24;100037.97;;;10.70;96.46
59029;BME280;45919;51.420;5.454;2022-12-22T05:51:26;100055.41;;;10.74;96.86
59029;BME280;45919;51.420;5.454;2022-12-22T05:52:28;100034.47;;;10.64;96.75
59029;BME280;45919;51.420;5.454;2022-12-22T05:53:29;100019.66;;;10.57;96.84
59029;BME280;45919;51.420;5.454;2022-12-22T05:54:31;100042.34;;;10.75;97.12
59029;BME280;45919;51.420;5.454;2022-12-22T05:55:33;100048.41;;;10.74;97.01
59029;BME280;45919;51.420;5.454;2022-12-22T05:56:35;100042.34;;;10.72;96.90
59029;BME280;45919;51.420;5.454;2022-12-22T05:57:37;100015.31;;;10.53;97.05
59029;BME280;45919;51.420;5.454;2022-12-22T05:58:39;100043.22;;;10.79;96.84
59029;BME280;45919;51.420;5.454;2022-12-22T05:59:40;100053.66;;;10.79;96.85
59029;BME280;45919;51.420;5.454;2022-12-22T06:00:42;100036.22;;;10.64;96.81
59029;BME280;45919;51.420;5.454;2022-12-22T06:01:43;100055.41;;;10.72;97.04
59029;BME280;45919;51.420;5.454;2022-12-22T06:02:45;100053.66;;;10.71;97.50
59029;BME280;45919;51.420;5.454;2022-12-22T06:03:47;100063.22;;;10.71;97.65
59029;BME280;45919;51.420;5.454;2022-12-22T06:04:49;100054.53;;;10.70;97.52
59029;BME280;45919;51.420;5.454;2022-12-22T06:05:50;100062.38;;;10.70;97.47
59029;BME280;45919;51.420;5.454;2022-12-22T06:06:52;100069.31;;;10.71;97.58
59029;BME280;45919;51.420;5.454;2022-12-22T06:07:54;100078.03;;;10.72;97.74
59029;BME280;45919;51.420;5.454;2022-12-22T06:08:55;100069.31;;;10.70;97.38
59029;BME280;45919;51.420;5.454;2022-12-22T06:09:57;100082.38;;;10.73;97.57
59029;BME280;45919;51.420;5.454;2022-12-22T06:10:58;100085.00;;;10.73;97.38
59029;BME280;45919;51.420;5.454;2022-12-22T06:12:01;100089.38;;;10.74;97.20
59029;BME280;45919;51.420;5.454;2022-12-22T06:13:03;100085.88;;;10.72;96.95
59029;BME280;45919;51.420;5.454;2022-12-22T06:14:04;100060.56;;;10.54;97.05
59029;BME280;45919;51.420;5.454;2022-12-22T06:15:08;100092.81;;;10.73;97.11
59029;BME280;45919;51.420;5.454;2022-12-22T06:16:11;100075.41;;;10.66;96.86
59029;BME280;45919;51.420;5.454;2022-12-22T06:17:12;100094.59;;;10.72;97.01
59029;BME280;45919;51.420;5.454;2022-12-22T06:18:14;100076.28;;;10.63;97.08
59029;BME280;45919;51.420;5.454;2022-12-22T06:19:15;100099.81;;;10.72;97.13
59029;BME280;45919;51.420;5.454;2022-12-22T06:20:17;100088.44;;;10.64;96.76
59029;BME280;45919;51.420;5.454;2022-12-22T06:21:19;100100.66;;;10.68;97.17
59029;BME280;45919;51.420;5.454;2022-12-22T06:22:20;100110.22;;;10.68;97.54
59029;BME280;45919;51.420;5.454;2022-12-22T06:23:22;100113.72;;;10.68;97.29
59029;BME280;45919;51.420;5.454;2022-12-22T06:24:24;100105.00;;;10.68;97.24
59029;BME280;45919;51.420;5.454;2022-12-22T06:25:25;100111.97;;;10.67;97.49
59029;BME280;45919;51.420;5.454;2022-12-22T06:26:27;100097.13;;;10.58;97.67
59029;BME280;45919;51.420;5.454;2022-12-22T06:27:28;100098.88;;;10.55;97.97